createdAt,value
2017-12-27T00:03:58.402Z,4.07
2017-12-27T00:06:31.639Z,4.39
2017-12-27T00:09:17.670Z,4.45
2017-12-27T00:11:52.180Z,4.58
2017-12-27T00:14:26.697Z,4.26
2017-12-27T00:17:01.367Z,4.04
2017-12-27T00:19:36.076Z,4.10
2017-12-27T00:22:10.758Z,3.89
2017-12-27T00:24:45.374Z,3.96
2017-12-27T00:27:20.463Z,3.83
2017-12-27T00:29:54.721Z,3.80
2017-12-27T00:32:21.836Z,3.70
2017-12-27T00:34:49.545Z,3.80
2017-12-27T00:37:17.264Z,3.92
2017-12-27T00:39:45.509Z,3.97
2017-12-27T00:42:13.615Z,3.83
2017-12-27T00:44:41.411Z,3.46
2017-12-27T00:47:09.048Z,3.54
2017-12-27T00:49:36.742Z,3.28
2017-12-27T00:52:04.392Z,3.57
2017-12-27T00:54:32.132Z,3.80
2017-12-27T00:56:59.890Z,3.96
2017-12-27T00:59:27.587Z,3.76
2017-12-27T01:01:55.331Z,3.28
2017-12-27T01:04:23.805Z,3.81
2017-12-27T01:06:51.396Z,3.52
2017-12-27T01:09:19.103Z,3.44
2017-12-27T01:11:46.715Z,3.52
2017-12-27T01:14:14.350Z,3.87
2017-12-27T01:16:42.180Z,4.23
2017-12-27T01:19:09.870Z,4.01
2017-12-27T01:21:37.550Z,3.71
2017-12-27T01:24:06.044Z,3.84
2017-12-27T01:26:34.302Z,3.72
2017-12-27T01:29:01.917Z,3.46
2017-12-27T01:31:29.532Z,3.56
2017-12-27T01:33:57.296Z,3.72
2017-12-27T01:36:24.968Z,3.59
2017-12-27T01:38:52.738Z,3.64
2017-12-27T01:41:20.836Z,3.50
2017-12-27T01:43:48.637Z,3.43
2017-12-27T01:46:16.366Z,4.05
2017-12-27T01:48:45.488Z,3.97
2017-12-27T01:51:13.464Z,3.48
2017-12-27T01:53:41.158Z,3.79
2017-12-27T01:56:09.850Z,3.62
2017-12-27T01:58:38.409Z,3.77
2017-12-27T02:01:06.567Z,3.26
2017-12-27T02:03:34.209Z,3.90
2017-12-27T02:06:02.016Z,3.81
2017-12-27T02:08:31.964Z,3.61
2017-12-27T02:10:59.615Z,3.64
2017-12-27T02:13:27.370Z,3.82
2017-12-27T02:15:55.041Z,3.78
2017-12-27T02:18:22.630Z,3.80
2017-12-27T02:20:51.159Z,3.70
2017-12-27T02:23:19.893Z,3.60
2017-12-27T02:25:47.936Z,3.38
2017-12-27T02:28:15.582Z,3.60
2017-12-27T02:30:43.337Z,3.37
2017-12-27T02:33:11.148Z,3.73
2017-12-27T02:35:39.785Z,4.34
2017-12-27T02:38:07.677Z,4.22
2017-12-27T02:40:36.501Z,3.44
2017-12-27T02:43:04.238Z,3.92
2017-12-27T02:45:32.974Z,3.80
2017-12-27T02:48:01.172Z,3.61
2017-12-27T02:50:29.568Z,3.36
2017-12-27T02:52:57.302Z,3.15
2017-12-27T02:55:27.128Z,1.99
2017-12-27T02:57:55.758Z,2.70
2017-12-27T03:00:23.496Z,2.64
2017-12-27T03:02:51.308Z,3.16
2017-12-27T03:05:19.082Z,3.18
2017-12-27T03:07:47.753Z,3.44
2017-12-27T03:10:15.428Z,3.33
2017-12-27T03:12:43.227Z,3.22
2017-12-27T03:15:10.933Z,3.13
2017-12-27T03:17:38.622Z,3.08
2017-12-27T03:20:06.308Z,2.91
2017-12-27T03:22:34.029Z,2.90
2017-12-27T03:25:01.723Z,3.45
2017-12-27T03:27:29.450Z,2.98
2017-12-27T03:29:57.123Z,3.23
2017-12-27T03:32:24.862Z,3.03
2017-12-27T03:34:52.558Z,3.05
2017-12-27T03:37:20.402Z,2.96
2017-12-27T03:39:49.983Z,3.36
2017-12-27T03:42:19.376Z,3.68
2017-12-27T03:44:47.134Z,3.05
2017-12-27T03:47:14.790Z,3.08
2017-12-27T03:49:42.431Z,2.78
2017-12-27T03:52:13.508Z,3.07
2017-12-27T03:54:48.878Z,3.24
2017-12-27T03:57:20.993Z,3.28
2017-12-27T03:59:50.899Z,3.26
2017-12-27T04:02:20.487Z,3.31
2017-12-27T04:04:48.614Z,3.40
2017-12-27T04:07:16.970Z,3.16
2017-12-27T04:09:44.895Z,3.53
2017-12-27T04:12:13.571Z,3.47
2017-12-27T04:14:41.406Z,3.10
2017-12-27T04:17:09.647Z,3.13
2017-12-27T04:19:37.366Z,3.05
2017-12-27T04:22:05.150Z,3.00
2017-12-27T04:24:33.226Z,3.33
2017-12-27T04:27:01.084Z,2.99
2017-12-27T04:29:28.742Z,3.16
2017-12-27T04:31:56.413Z,3.41
2017-12-27T04:34:25.192Z,3.28
2017-12-27T04:36:53.794Z,3.50
2017-12-27T04:39:21.660Z,3.67
2017-12-27T04:41:49.326Z,3.41
2017-12-27T04:44:17.046Z,3.56
2017-12-27T04:46:44.758Z,3.59
2017-12-27T04:49:12.741Z,3.25
2017-12-27T04:51:40.482Z,3.34
2017-12-27T04:54:08.282Z,3.26
2017-12-27T04:56:35.953Z,3.26
2017-12-27T04:59:03.722Z,3.20
2017-12-27T05:01:31.526Z,3.15
2017-12-27T05:03:59.513Z,3.22
2017-12-27T05:06:27.231Z,3.33
2017-12-27T05:08:55.372Z,2.91
2017-12-27T05:11:23.093Z,3.06
2017-12-27T05:13:50.808Z,2.97
2017-12-27T05:16:18.567Z,2.88
2017-12-27T05:18:46.278Z,2.81
2017-12-27T05:21:14.041Z,2.65
2017-12-27T05:23:41.742Z,2.62
2017-12-27T05:26:09.594Z,2.80
2017-12-27T05:28:37.312Z,2.81
2017-12-27T05:31:05.411Z,2.66
2017-12-27T05:33:33.215Z,2.57
2017-12-27T05:36:01.172Z,2.68
2017-12-27T05:38:29.066Z,2.68
2017-12-27T05:40:56.740Z,2.44
2017-12-27T05:43:24.531Z,2.74
2017-12-27T05:45:52.124Z,2.12
2017-12-27T05:48:19.785Z,2.55
2017-12-27T05:50:47.834Z,2.77
2017-12-27T05:53:16.530Z,3.13
2017-12-27T05:55:44.496Z,3.02
2017-12-27T05:58:12.315Z,1.72
2017-12-27T06:00:40.070Z,1.95
2017-12-27T06:03:07.997Z,1.49
2017-12-27T06:05:35.756Z,1.85
2017-12-27T06:08:03.501Z,2.25
2017-12-27T06:10:31.246Z,2.25
2017-12-27T06:12:59.636Z,2.62
2017-12-27T06:15:27.369Z,2.54
2017-12-27T06:17:55.094Z,3.09
2017-12-27T06:20:22.779Z,2.86
2017-12-27T06:22:50.592Z,3.07
2017-12-27T06:25:18.266Z,3.32
2017-12-27T06:27:46.041Z,3.12
2017-12-27T06:30:14.416Z,3.57
2017-12-27T06:32:42.186Z,4.62
2017-12-27T06:35:10.543Z,5.06
2017-12-27T06:37:39.297Z,5.78
2017-12-27T06:40:07.017Z,5.87
2017-12-27T06:42:36.323Z,5.86
2017-12-27T06:45:04.921Z,6.53
2017-12-27T06:47:32.810Z,6.20
2017-12-27T06:50:01.630Z,7.46
2017-12-27T06:52:29.544Z,8.40
2017-12-27T06:54:57.162Z,8.30
2017-12-27T06:57:24.926Z,8.71
2017-12-27T06:59:52.748Z,8.80
2017-12-27T07:02:20.773Z,8.82
2017-12-27T07:04:48.488Z,9.03
2017-12-27T07:07:16.472Z,9.78
2017-12-27T07:09:44.125Z,10.11
2017-12-27T07:12:11.789Z,10.57
2017-12-27T07:14:39.507Z,10.29
2017-12-27T07:17:07.361Z,10.72
2017-12-27T07:19:35.180Z,10.77
2017-12-27T07:22:03.980Z,9.60
2017-12-27T07:24:32.003Z,11.10
2017-12-27T07:27:01.196Z,11.27
2017-12-27T07:29:29.029Z,11.96
2017-12-27T07:31:56.869Z,10.90
2017-12-27T07:34:24.572Z,11.80
2017-12-27T07:36:52.247Z,11.70
2017-12-27T07:39:19.995Z,11.84
2017-12-27T07:41:48.124Z,10.09
2017-12-27T07:44:15.930Z,10.04
2017-12-27T07:46:44.025Z,9.49
2017-12-27T07:49:11.857Z,8.80
2017-12-27T07:51:41.411Z,9.04
2017-12-27T07:54:09.147Z,8.62
2017-12-27T07:56:37.803Z,8.94
2017-12-27T07:59:09.325Z,8.04
2017-12-27T08:01:37.197Z,8.09
2017-12-27T08:04:05.105Z,7.60
2017-12-27T08:06:33.072Z,8.47
2017-12-27T08:09:00.814Z,9.94
2017-12-27T08:11:29.425Z,10.74
2017-12-27T08:13:57.297Z,10.10
2017-12-27T08:16:25.886Z,11.64
2017-12-27T08:18:53.749Z,11.82
2017-12-27T08:21:21.441Z,11.58
2017-12-27T08:23:49.190Z,12.10
2017-12-27T08:26:16.930Z,13.02
2017-12-27T08:28:51.853Z,13.41
2017-12-27T08:31:21.455Z,13.52
2017-12-27T08:33:54.003Z,13.87
2017-12-27T08:36:23.045Z,15.30
2017-12-27T08:38:51.531Z,14.67
2017-12-27T08:41:19.754Z,14.47
2017-12-27T08:43:48.717Z,15.22
2017-12-27T08:46:40.843Z,15.01
2017-12-27T08:49:27.777Z,16.13
2017-12-27T08:51:56.214Z,15.64
2017-12-27T08:54:23.988Z,15.57
2017-12-27T08:56:54.403Z,15.45
2017-12-27T08:59:22.157Z,15.09
2017-12-27T09:01:50.116Z,14.50
2017-12-27T09:04:17.955Z,15.84
2017-12-27T09:06:47.557Z,16.00
2017-12-27T09:09:16.196Z,15.70
2017-12-27T09:11:44.837Z,15.08
2017-12-27T09:14:13.895Z,13.75
2017-12-27T09:16:42.124Z,13.28
2017-12-27T09:19:10.463Z,12.42
2017-12-27T09:21:39.912Z,12.62
2017-12-27T09:24:12.405Z,12.18
2017-12-27T09:26:40.610Z,11.82
2017-12-27T09:29:10.968Z,12.12
2017-12-27T09:31:39.022Z,10.49
2017-12-27T09:34:07.554Z,11.29
2017-12-27T09:36:36.483Z,10.01
2017-12-27T09:39:16.681Z,9.07
2017-12-27T09:47:12.836Z,10.03
2017-12-27T09:49:41.249Z,8.62
2017-12-27T09:52:09.506Z,7.46
2017-12-27T09:54:37.788Z,9.12
2017-12-27T09:57:07.798Z,8.42
2017-12-27T09:59:37.299Z,8.79
2017-12-27T10:02:06.292Z,8.82
2017-12-27T10:04:36.431Z,9.17
2017-12-27T10:07:04.265Z,9.45
2017-12-27T10:09:35.889Z,8.63
2017-12-27T10:12:03.928Z,9.19
2017-12-27T10:14:32.247Z,11.22
2017-12-27T10:17:06.890Z,11.78
2017-12-27T10:19:55.498Z,11.92
2017-12-27T10:29:20.618Z,14.24
2017-12-27T10:31:51.108Z,13.83
2017-12-27T10:34:19.752Z,14.21
2017-12-27T10:36:50.702Z,14.65
2017-12-27T10:43:47.880Z,13.18
2017-12-27T10:46:17.709Z,13.88
2017-12-27T10:48:45.653Z,13.86
2017-12-27T10:51:13.571Z,14.90
2017-12-27T10:53:41.666Z,15.57
2017-12-27T10:56:16.164Z,15.76
2017-12-27T10:58:54.351Z,15.58
2017-12-27T11:01:34.619Z,13.79
2017-12-27T11:04:07.086Z,13.86
2017-12-27T11:06:43.743Z,13.31
2017-12-27T11:12:51.257Z,14.06
2017-12-27T15:17:40.487Z,10.67
2017-12-27T15:20:08.110Z,10.67
2017-12-27T15:22:36.399Z,10.45
2017-12-27T15:25:04.063Z,10.76
2017-12-27T15:27:31.712Z,10.68
2017-12-27T15:30:03.193Z,10.65
2017-12-27T15:32:42.775Z,10.89
2017-12-27T15:35:10.531Z,11.03
2017-12-27T15:48:12.094Z,10.50
2017-12-27T15:50:44.593Z,10.34
2017-12-27T15:53:16.395Z,10.40
2017-12-27T15:55:49.921Z,10.35
2017-12-27T15:58:18.017Z,9.89
2017-12-27T16:00:45.959Z,9.87
2017-12-27T16:03:13.925Z,9.70
2017-12-27T16:05:42.750Z,9.73
2017-12-27T16:08:10.756Z,9.50
2017-12-27T16:10:40.187Z,9.65
2017-12-27T16:13:08.317Z,9.90
2017-12-27T16:15:40.055Z,9.85
2017-12-27T16:18:07.943Z,9.51
2017-12-27T16:20:39.273Z,9.88
2017-12-27T16:23:09.661Z,9.92
2017-12-27T16:25:37.457Z,9.88
2017-12-27T16:28:08.484Z,9.86
2017-12-27T16:30:38.328Z,9.85
2017-12-27T16:33:08.737Z,9.80
2017-12-27T16:35:36.516Z,9.85
2017-12-27T16:38:05.099Z,9.67
2017-12-27T16:40:33.269Z,9.60
2017-12-27T16:43:01.077Z,9.13
2017-12-27T16:45:29.314Z,8.81
2017-12-27T16:47:58.096Z,8.77
2017-12-27T16:50:26.730Z,8.45
2017-12-27T16:53:24.717Z,8.32
2017-12-27T16:55:57.896Z,8.08
2017-12-27T16:58:25.990Z,8.09
2017-12-27T17:00:54.147Z,8.00
2017-12-27T17:03:21.967Z,7.99
2017-12-27T17:05:50.401Z,7.71
2017-12-27T17:11:03.270Z,7.62
2017-12-27T17:13:33.338Z,7.71
2017-12-27T17:16:01.948Z,7.81
2017-12-27T17:18:30.871Z,7.81
2017-12-27T17:23:31.523Z,8.07
2017-12-27T17:25:59.487Z,8.38
2017-12-27T17:28:28.252Z,8.47
2017-12-27T17:30:58.797Z,8.48
2017-12-27T17:33:42.434Z,8.58
2017-12-27T17:36:22.056Z,8.77
2017-12-27T17:38:51.963Z,8.61
2017-12-27T17:45:32.683Z,8.90
2017-12-27T17:48:01.446Z,8.29
2017-12-27T17:50:37.797Z,8.40
2017-12-27T17:53:05.622Z,8.53
2017-12-27T17:55:33.767Z,8.22
2017-12-27T17:58:02.090Z,8.01
2017-12-27T18:00:30.086Z,8.32
2017-12-27T18:02:57.826Z,8.18
2017-12-27T18:05:26.236Z,8.34
2017-12-27T18:07:54.061Z,8.66
2017-12-27T18:10:22.289Z,8.35
2017-12-27T18:12:50.098Z,8.28
2017-12-27T18:15:17.934Z,8.24
2017-12-27T18:17:45.605Z,8.46
2017-12-27T18:20:13.335Z,8.44
2017-12-27T18:22:41.257Z,8.59
2017-12-27T18:25:08.964Z,8.50
2017-12-27T18:27:36.885Z,8.48
2017-12-27T18:30:12.660Z,8.15
2017-12-27T18:32:40.560Z,8.11
2017-12-27T18:35:08.191Z,8.09
2017-12-27T18:37:35.898Z,8.44
2017-12-27T18:40:03.821Z,8.28
2017-12-27T18:42:31.675Z,7.87
2017-12-27T18:44:59.370Z,7.92
2017-12-27T18:47:27.146Z,8.13
2017-12-27T18:49:54.934Z,8.38
2017-12-27T18:52:22.890Z,8.10
2017-12-27T18:54:50.588Z,8.19
2017-12-27T18:57:18.335Z,8.04
2017-12-27T18:59:46.028Z,8.09
2017-12-27T19:02:14.762Z,8.28
2017-12-27T19:04:42.653Z,7.88
2017-12-27T19:07:10.925Z,8.04
2017-12-27T19:09:39.732Z,8.04
2017-12-27T19:12:07.387Z,8.09
2017-12-27T19:14:35.034Z,8.49
2017-12-27T19:17:03.533Z,8.23
2017-12-27T19:19:31.463Z,8.06
2017-12-27T19:21:59.182Z,8.25
2017-12-27T19:24:29.621Z,8.31
2017-12-27T19:26:58.173Z,8.23
2017-12-27T19:29:26.440Z,8.65
2017-12-27T19:31:54.226Z,8.19
2017-12-27T19:34:22.123Z,7.99
2017-12-27T19:36:51.037Z,8.10
2017-12-27T19:39:19.289Z,8.21
2017-12-27T19:41:47.220Z,8.40
2017-12-27T19:44:15.159Z,8.24
2017-12-27T19:46:44.094Z,7.88
2017-12-27T19:49:11.754Z,7.91
2017-12-27T19:51:39.535Z,7.62
2017-12-27T19:54:07.572Z,7.62
2017-12-27T19:56:35.435Z,7.70
2017-12-27T19:59:03.420Z,7.36
2017-12-27T20:01:31.987Z,7.80
2017-12-27T20:03:59.785Z,7.56
2017-12-27T20:06:27.918Z,7.18
2017-12-27T20:08:55.659Z,7.89
2017-12-27T20:11:23.264Z,7.51
2017-12-27T20:13:54.873Z,7.88
2017-12-27T20:19:01.525Z,7.20
2017-12-27T20:21:44.690Z,7.40
2017-12-27T20:27:30.427Z,7.38
2017-12-27T20:30:13.403Z,7.32
2017-12-27T20:32:43.313Z,6.97
2017-12-27T20:35:12.430Z,7.47
2017-12-27T20:37:40.420Z,7.22
2017-12-27T20:40:13.562Z,7.18
2017-12-27T20:42:44.534Z,7.23
2017-12-27T20:45:12.573Z,7.07
2017-12-27T20:47:41.237Z,6.88
2017-12-27T20:50:23.611Z,6.76
2017-12-27T20:53:09.408Z,6.42
2017-12-27T20:55:45.200Z,6.84
2017-12-27T20:58:15.996Z,6.64
2017-12-27T21:00:44.306Z,6.31
2017-12-27T21:03:12.335Z,6.20
2017-12-27T21:08:50.825Z,6.61
2017-12-27T21:11:18.894Z,6.33
2017-12-27T21:13:47.511Z,6.06
2017-12-27T21:16:15.948Z,6.12
2017-12-27T21:22:13.242Z,6.77
2017-12-27T21:24:42.493Z,6.76
2017-12-27T21:27:11.215Z,6.74
2017-12-27T21:29:39.081Z,6.73
2017-12-27T21:32:06.989Z,7.04
2017-12-27T21:34:35.007Z,6.85
2017-12-27T21:37:02.913Z,6.87
2017-12-27T21:39:32.604Z,7.23
2017-12-27T21:42:02.647Z,7.19
2017-12-27T21:44:30.664Z,7.02
2017-12-27T21:46:58.611Z,7.16
2017-12-27T21:49:32.042Z,7.15
2017-12-27T21:52:06.648Z,6.87
2017-12-27T21:54:52.961Z,7.11
2017-12-27T22:00:19.173Z,7.09
2017-12-27T22:02:48.614Z,6.78
2017-12-27T22:05:18.553Z,7.00
2017-12-27T22:07:47.389Z,7.08
2017-12-27T22:10:15.890Z,7.01
2017-12-27T22:12:44.285Z,6.97
2017-12-27T22:15:13.993Z,7.00
2017-12-27T22:17:43.480Z,6.84
2017-12-27T22:33:24.377Z,6.77
2017-12-27T22:36:04.693Z,6.88
2017-12-27T22:38:36.595Z,6.84
2017-12-27T22:41:06.505Z,6.60
2017-12-27T22:43:38.544Z,6.76
2017-12-27T22:46:07.390Z,6.96
2017-12-27T22:48:37.385Z,7.00
2017-12-27T22:51:06.207Z,7.06
2017-12-27T22:53:33.961Z,7.34
2017-12-27T22:56:01.804Z,7.11
2017-12-27T22:58:29.683Z,6.52
2017-12-27T23:00:57.533Z,6.44
2017-12-27T23:03:26.007Z,6.78
2017-12-27T23:05:53.886Z,6.20
2017-12-27T23:08:22.211Z,5.51
2017-12-27T23:10:50.085Z,5.92
2017-12-27T23:13:18.245Z,5.96
2017-12-27T23:15:46.102Z,6.21
2017-12-27T23:18:14.702Z,6.15
2017-12-27T23:20:42.481Z,6.05
2017-12-27T23:23:10.657Z,6.06
2017-12-27T23:25:52.163Z,5.55
2017-12-27T23:28:19.998Z,5.74
2017-12-27T23:30:48.608Z,5.93
2017-12-27T23:33:16.981Z,6.24
2017-12-27T23:35:46.293Z,6.06
2017-12-27T23:38:15.291Z,6.06
2017-12-27T23:40:45.914Z,6.16
2017-12-27T23:43:13.599Z,5.61
2017-12-27T23:45:41.672Z,5.48
2017-12-27T23:48:13.842Z,5.22
2017-12-27T23:50:41.796Z,5.95
2017-12-27T23:53:11.636Z,5.45
2017-12-27T23:55:39.541Z,5.41
2017-12-27T23:58:09.888Z,5.59
